createdAt,value
2023-05-25T00:02:06.191Z,17.50
2023-05-25T00:04:33.508Z,12.87
2023-05-25T00:07:01.366Z,9.67
2023-05-25T00:09:28.315Z,14.00
2023-05-25T00:11:55.355Z,11.37
2023-05-25T00:14:22.533Z,15.73
2023-05-25T00:16:49.436Z,16.47
2023-05-25T00:19:16.371Z,12.60
2023-05-25T00:21:43.182Z,14.10
2023-05-25T00:24:10.052Z,13.40
2023-05-25T00:26:36.992Z,12.97
2023-05-25T00:29:04.659Z,14.43
2023-05-25T00:31:31.238Z,14.27
2023-05-25T00:33:58.162Z,14.03
2023-05-25T00:36:25.238Z,14.10
2023-05-25T00:38:51.740Z,16.53
2023-05-25T00:41:18.869Z,15.53
2023-05-25T00:43:46.382Z,15.30
2023-05-25T00:46:15.642Z,14.87
2023-05-25T00:48:43.050Z,13.97
2023-05-25T00:51:12.661Z,18.13
2023-05-25T00:53:39.712Z,13.40
2023-05-25T00:56:19.055Z,17.17
2023-05-25T00:58:48.652Z,14.43
2023-05-25T01:01:16.562Z,13.73
2023-05-25T01:03:48.161Z,13.57
2023-05-25T01:06:16.014Z,10.27
2023-05-25T01:08:47.287Z,20.10
2023-05-25T01:11:15.109Z,11.03
2023-05-25T01:13:42.797Z,18.73
2023-05-25T01:16:10.065Z,15.40
2023-05-25T01:18:37.113Z,15.03
2023-05-25T01:21:09.999Z,13.77
2023-05-25T01:23:37.463Z,11.13
2023-05-25T01:26:09.725Z,14.77
2023-05-25T01:28:40.540Z,14.47
2023-05-25T01:31:09.682Z,11.27
2023-05-25T01:33:36.699Z,14.60
2023-05-25T01:36:04.434Z,14.50
2023-05-25T01:38:30.965Z,16.80
2023-05-25T01:40:57.813Z,14.90
2023-05-25T01:43:25.848Z,11.80
2023-05-25T01:46:01.255Z,16.03
2023-05-25T01:48:39.106Z,16.93
2023-05-25T01:51:16.231Z,14.03
2023-05-25T01:53:48.575Z,15.60
2023-05-25T01:56:17.283Z,16.17
2023-05-25T01:58:45.745Z,14.43
2023-05-25T02:01:17.344Z,14.30
2023-05-25T02:03:46.461Z,15.87
2023-05-25T02:06:13.428Z,18.70
2023-05-25T02:08:39.934Z,15.47
2023-05-25T02:11:06.819Z,16.63
2023-05-25T02:13:33.305Z,12.50
2023-05-25T02:16:00.350Z,16.57
2023-05-25T02:18:26.936Z,16.23
2023-05-25T02:20:53.436Z,17.23
2023-05-25T02:23:19.963Z,18.23
2023-05-25T02:25:46.669Z,17.37
2023-05-25T02:28:14.891Z,15.33
2023-05-25T02:30:41.486Z,18.13
2023-05-25T02:33:08.468Z,15.30
2023-05-25T02:35:35.234Z,17.20
2023-05-25T02:38:02.038Z,17.27
2023-05-25T02:40:28.835Z,17.03
2023-05-25T02:42:55.735Z,14.67
2023-05-25T02:45:22.296Z,18.37
2023-05-25T02:47:49.258Z,20.57
2023-05-25T02:50:15.896Z,16.80
2023-05-25T02:52:42.778Z,16.37
2023-05-25T02:55:10.308Z,20.47
2023-05-25T02:57:36.923Z,17.60
2023-05-25T03:00:04.578Z,20.30
2023-05-25T03:02:31.122Z,22.27
2023-05-25T03:04:58.064Z,15.57
2023-05-25T03:07:24.554Z,20.83
2023-05-25T03:09:51.048Z,23.43
2023-05-25T03:12:17.972Z,21.37
2023-05-25T03:14:44.485Z,20.87
2023-05-25T03:17:11.484Z,17.07
2023-05-25T03:19:37.965Z,14.00
2023-05-25T03:22:04.698Z,17.47
2023-05-25T03:24:31.439Z,18.17
2023-05-25T03:26:58.386Z,17.03
2023-05-25T03:29:25.286Z,17.10
2023-05-25T03:31:51.832Z,18.77
2023-05-25T03:34:18.703Z,16.77
2023-05-25T03:36:45.352Z,18.80
2023-05-25T03:39:12.443Z,19.20
2023-05-25T03:41:39.301Z,20.93
2023-05-25T03:44:05.811Z,19.17
2023-05-25T03:46:32.415Z,21.13
2023-05-25T03:48:59.005Z,20.07
2023-05-25T03:51:26.036Z,17.77
2023-05-25T03:53:52.519Z,18.20
2023-05-25T03:56:19.441Z,21.60
2023-05-25T03:58:46.380Z,22.67
2023-05-25T04:01:13.295Z,19.47
2023-05-25T04:03:39.974Z,21.77
2023-05-25T04:06:07.291Z,23.73
2023-05-25T04:08:33.808Z,22.27
2023-05-25T04:11:00.637Z,22.07
2023-05-25T04:13:27.589Z,16.67
2023-05-25T04:15:55.563Z,22.60
2023-05-25T04:18:22.428Z,21.40
2023-05-25T04:20:48.930Z,18.60
2023-05-25T04:23:15.512Z,17.00
2023-05-25T04:25:42.575Z,21.53
2023-05-25T04:28:09.132Z,19.97
2023-05-25T04:30:36.006Z,21.57
2023-05-25T04:33:02.870Z,18.43
2023-05-25T04:35:29.613Z,17.23
2023-05-25T04:37:56.501Z,17.70
2023-05-25T04:40:23.388Z,17.03
2023-05-25T04:42:50.289Z,21.27
2023-05-25T04:45:16.826Z,19.13
2023-05-25T04:47:43.692Z,19.20
2023-05-25T04:50:11.204Z,20.00
2023-05-25T04:52:37.745Z,21.93
2023-05-25T04:55:04.611Z,17.13
2023-05-25T04:57:31.119Z,12.63
2023-05-25T04:59:58.471Z,16.67
2023-05-25T05:02:25.317Z,16.57
2023-05-25T05:04:52.209Z,18.37
2023-05-25T05:07:18.896Z,21.07
2023-05-25T05:09:45.401Z,16.43
2023-05-25T05:12:12.619Z,9.23
2023-05-25T05:14:39.141Z,10.17
2023-05-25T05:17:05.748Z,8.00
2023-05-25T05:19:32.390Z,10.17
2023-05-25T05:21:59.819Z,12.47
2023-05-25T05:24:26.626Z,12.13
2023-05-25T05:26:58.174Z,8.93
2023-05-25T05:29:26.001Z,9.90
2023-05-25T05:31:52.958Z,13.03
2023-05-25T05:34:19.502Z,9.67
2023-05-25T05:36:57.223Z,9.63
2023-05-25T05:39:25.299Z,11.33
2023-05-25T05:41:51.914Z,7.27
2023-05-25T05:44:18.673Z,10.83
2023-05-25T05:46:45.602Z,11.10
2023-05-25T05:49:12.151Z,11.77
2023-05-25T05:51:39.054Z,8.63
2023-05-25T05:54:06.127Z,9.90
2023-05-25T05:56:32.707Z,8.53
2023-05-25T05:58:59.607Z,9.33
2023-05-25T06:01:26.116Z,8.50
2023-05-25T06:03:52.640Z,9.40
2023-05-25T06:06:19.168Z,9.47
2023-05-25T06:08:45.871Z,10.13
2023-05-25T06:11:12.780Z,11.43
2023-05-25T06:13:39.297Z,9.83
2023-05-25T06:16:06.100Z,9.40
2023-05-25T06:18:32.662Z,9.87
2023-05-25T06:21:01.374Z,8.27
2023-05-25T06:23:27.849Z,7.73
2023-05-25T06:25:54.366Z,9.20
2023-05-25T06:28:20.982Z,11.47
2023-05-25T06:30:47.461Z,8.43
2023-05-25T06:33:14.047Z,9.57
2023-05-25T06:35:40.875Z,6.90
2023-05-25T06:38:07.410Z,8.73
2023-05-25T06:40:34.271Z,7.77
2023-05-25T06:43:00.774Z,8.13
2023-05-25T06:45:27.277Z,10.73
2023-05-25T06:47:53.844Z,9.57
2023-05-25T06:50:20.748Z,6.70
2023-05-25T06:52:47.256Z,7.57
2023-05-25T06:55:13.804Z,11.10
2023-05-25T06:57:40.853Z,7.50
2023-05-25T07:00:08.312Z,7.20
2023-05-25T07:02:35.226Z,7.13
2023-05-25T07:05:01.818Z,6.87
2023-05-25T07:07:28.338Z,11.07
2023-05-25T07:09:54.842Z,7.50
2023-05-25T07:12:21.321Z,7.20
2023-05-25T07:14:47.840Z,6.47
2023-05-25T07:17:14.899Z,10.60
2023-05-25T07:19:41.956Z,11.13
2023-05-25T07:22:10.721Z,9.73
2023-05-25T07:24:37.760Z,8.63
2023-05-25T07:27:04.811Z,8.47
2023-05-25T07:29:31.308Z,10.77
2023-05-25T07:31:57.888Z,10.70
2023-05-25T07:34:27.167Z,11.70
2023-05-25T07:36:54.356Z,6.97
2023-05-25T07:39:21.209Z,9.10
2023-05-25T07:41:47.791Z,6.57
2023-05-25T07:44:14.702Z,9.27
2023-05-25T07:46:42.489Z,10.10
2023-05-25T07:49:09.425Z,10.67
2023-05-25T07:51:35.972Z,10.37
2023-05-25T07:54:02.507Z,9.00
2023-05-25T07:56:29.336Z,9.00
2023-05-25T07:58:55.835Z,7.93
2023-05-25T08:01:23.237Z,9.70
2023-05-25T08:03:51.447Z,8.90
2023-05-25T08:06:18.298Z,7.53
2023-05-25T08:08:45.266Z,9.13
2023-05-25T08:11:11.862Z,7.73
2023-05-25T08:13:38.988Z,8.20
2023-05-25T08:16:05.900Z,9.00
2023-05-25T08:18:32.384Z,7.77
2023-05-25T08:20:59.240Z,9.27
2023-05-25T08:23:25.776Z,9.60
2023-05-25T08:25:52.315Z,10.73
2023-05-25T08:28:20.031Z,11.93
2023-05-25T08:30:46.977Z,10.60
2023-05-25T08:33:14.128Z,10.77
2023-05-25T08:35:41.084Z,9.73
2023-05-25T08:38:07.604Z,10.90
2023-05-25T08:40:34.595Z,8.47
2023-05-25T08:43:01.318Z,12.37
2023-05-25T08:45:36.029Z,9.37
2023-05-25T08:48:08.092Z,10.33
2023-05-25T08:50:36.028Z,15.00
2023-05-25T08:53:08.132Z,12.83
2023-05-25T08:55:37.752Z,11.53
2023-05-25T08:58:16.608Z,9.50
2023-05-25T09:00:58.388Z,9.70
2023-05-25T09:03:25.240Z,7.97
2023-05-25T09:05:52.021Z,9.77
2023-05-25T09:08:21.981Z,12.20
2023-05-25T09:10:50.012Z,8.17
2023-05-25T09:13:22.115Z,9.73
2023-05-25T09:15:50.239Z,9.97
2023-05-25T09:18:17.448Z,13.37
2023-05-25T09:20:46.467Z,10.13
2023-05-25T09:23:14.836Z,8.63
2023-05-25T09:25:41.701Z,10.10
2023-05-25T09:28:24.799Z,10.77
2023-05-25T09:30:53.681Z,11.17
2023-05-25T09:33:20.705Z,9.50
2023-05-25T09:35:48.195Z,9.37
2023-05-25T09:38:16.367Z,10.33
2023-05-25T09:40:44.170Z,8.93
2023-05-25T09:43:17.304Z,9.03
2023-05-25T09:45:48.954Z,10.77
2023-05-25T09:48:15.717Z,7.43
2023-05-25T09:50:42.903Z,11.43
2023-05-25T09:53:10.786Z,13.03
2023-05-25T09:55:52.356Z,11.03
2023-05-25T09:58:23.121Z,8.47
2023-05-25T10:00:52.293Z,9.17
2023-05-25T10:03:18.775Z,7.10
2023-05-25T10:05:46.290Z,8.57
2023-05-25T10:08:13.888Z,12.63
2023-05-25T10:10:42.809Z,9.80
2023-05-25T10:13:11.227Z,11.00
2023-05-25T10:15:40.569Z,12.27
2023-05-25T10:18:09.463Z,11.43
2023-05-25T10:20:36.622Z,9.80
2023-05-25T10:23:17.748Z,10.93
2023-05-25T10:25:46.952Z,9.20
2023-05-25T10:28:21.706Z,14.07
2023-05-25T10:30:50.737Z,10.33
2023-05-25T10:33:18.053Z,12.23
2023-05-25T10:36:02.300Z,13.33
2023-05-25T10:38:33.648Z,11.50
2023-05-25T10:41:02.651Z,8.27
2023-05-25T10:43:29.288Z,11.47
2023-05-25T10:45:57.504Z,11.43
2023-05-25T10:48:34.845Z,9.13
2023-05-25T10:51:01.357Z,8.30
2023-05-25T10:53:27.909Z,8.87
2023-05-25T10:55:54.405Z,11.17
2023-05-25T10:58:22.635Z,14.20
2023-05-25T11:01:03.003Z,8.90
2023-05-25T11:03:53.594Z,7.47
2023-05-25T11:06:22.018Z,7.47
2023-05-25T11:08:59.177Z,11.83
2023-05-25T11:11:57.692Z,11.07
2023-05-25T11:14:28.155Z,9.53
2023-05-25T11:17:05.773Z,9.07
2023-05-25T11:19:51.079Z,9.47
2023-05-25T11:22:18.140Z,7.40
2023-05-25T11:24:44.949Z,11.90
2023-05-25T11:27:12.689Z,8.90
2023-05-25T11:29:40.156Z,7.37
2023-05-25T11:32:13.132Z,8.23
2023-05-25T11:34:40.094Z,12.43
2023-05-25T11:37:06.968Z,7.17
2023-05-25T11:39:33.470Z,7.80
2023-05-25T11:42:04.752Z,7.47
2023-05-25T11:44:36.450Z,9.33
2023-05-25T11:47:09.224Z,10.20
2023-05-25T11:49:40.784Z,9.50
2023-05-25T11:52:07.856Z,10.20
2023-05-25T11:54:35.352Z,9.27
2023-05-25T11:57:01.999Z,9.10
2023-05-25T11:59:32.227Z,8.77
2023-05-25T12:02:03.455Z,9.57
2023-05-25T12:04:31.463Z,7.90
2023-05-25T12:07:05.537Z,9.27
2023-05-25T12:09:32.465Z,9.03
2023-05-25T12:12:00.403Z,10.93
2023-05-25T12:14:26.926Z,11.83
2023-05-25T12:16:53.665Z,8.17
2023-05-25T12:19:21.731Z,7.33
2023-05-25T12:21:48.730Z,9.20
2023-05-25T12:24:15.609Z,9.37
2023-05-25T12:26:52.623Z,12.17
2023-05-25T12:29:19.491Z,18.23
2023-05-25T12:31:46.030Z,17.30
2023-05-25T12:34:20.167Z,7.87
2023-05-25T12:36:46.636Z,12.27
2023-05-25T12:39:31.556Z,15.27
2023-05-25T12:41:59.737Z,11.93
2023-05-25T12:44:37.447Z,19.57
2023-05-25T12:47:18.732Z,19.23
2023-05-25T12:49:48.072Z,7.63
2023-05-25T12:52:35.002Z,6.63
2023-05-25T12:55:21.581Z,11.07
2023-05-25T12:57:48.661Z,8.10
2023-05-25T13:00:15.720Z,6.30
2023-05-25T13:02:47.768Z,7.70
2023-05-25T13:05:34.797Z,7.47
2023-05-25T13:08:01.709Z,10.03
2023-05-25T13:10:29.217Z,9.53
2023-05-25T13:12:56.229Z,7.60
2023-05-25T13:15:22.730Z,9.40
2023-05-25T13:17:50.182Z,7.17
2023-05-25T13:20:18.770Z,7.40
2023-05-25T13:22:47.401Z,7.90
2023-05-25T13:25:14.761Z,10.00
2023-05-25T13:27:46.825Z,10.73
2023-05-25T13:30:14.368Z,8.30
2023-05-25T13:32:41.405Z,9.97
2023-05-25T13:35:08.673Z,9.67
2023-05-25T13:37:35.176Z,8.40
2023-05-25T13:40:01.678Z,9.47
2023-05-25T13:42:28.158Z,15.63
2023-05-25T13:44:55.042Z,8.33
2023-05-25T13:47:21.630Z,8.57
2023-05-25T13:49:48.530Z,7.70
2023-05-25T13:52:15.038Z,9.23
2023-05-25T13:54:42.106Z,7.67
2023-05-25T13:57:08.647Z,9.87
2023-05-25T13:59:35.135Z,10.50
2023-05-25T14:02:02.113Z,6.13
2023-05-25T14:04:28.719Z,7.90
2023-05-25T14:06:55.243Z,10.00
2023-05-25T14:09:21.818Z,12.23
2023-05-25T14:11:48.465Z,8.20
2023-05-25T14:14:29.973Z,10.33
2023-05-25T14:16:58.222Z,8.50
2023-05-25T14:19:24.716Z,6.47
2023-05-25T14:22:03.885Z,7.60
2023-05-25T14:24:38.120Z,8.87
2023-05-25T14:27:05.069Z,8.23
2023-05-25T14:29:31.990Z,8.13
2023-05-25T14:31:58.953Z,7.57
2023-05-25T14:34:25.853Z,7.93
2023-05-25T14:36:52.643Z,8.23
2023-05-25T14:39:19.484Z,11.20
2023-05-25T14:41:46.021Z,8.17
2023-05-25T14:44:12.562Z,12.10
2023-05-25T14:46:39.442Z,11.87
2023-05-25T14:49:06.042Z,9.67
2023-05-25T14:51:32.539Z,14.43
2023-05-25T14:53:59.061Z,13.43
2023-05-25T14:56:25.869Z,13.27
2023-05-25T14:58:52.715Z,16.77
2023-05-25T15:01:19.312Z,13.93
2023-05-25T15:03:46.374Z,13.93
2023-05-25T15:06:13.037Z,11.07
2023-05-25T15:08:39.524Z,9.27
2023-05-25T15:11:07.659Z,10.73
2023-05-25T15:13:34.563Z,11.13
2023-05-25T15:16:01.061Z,10.10
2023-05-25T15:18:27.594Z,7.80
2023-05-25T15:20:54.109Z,10.83
2023-05-25T15:23:20.620Z,14.10
2023-05-25T15:25:47.114Z,9.47
2023-05-25T15:28:14.023Z,10.73
2023-05-25T15:30:40.522Z,12.47
2023-05-25T15:33:07.498Z,11.73
2023-05-25T15:35:34.253Z,10.27
2023-05-25T15:38:01.418Z,11.10
2023-05-25T15:40:28.454Z,11.60
2023-05-25T15:42:54.987Z,9.73
2023-05-25T15:45:21.546Z,14.40
2023-05-25T15:47:48.088Z,13.07
2023-05-25T15:50:14.676Z,10.27
2023-05-25T15:52:41.174Z,8.73
2023-05-25T15:55:08.178Z,16.33
2023-05-25T15:57:34.991Z,11.87
2023-05-25T16:00:01.500Z,9.87
2023-05-25T16:02:27.988Z,12.97
2023-05-25T16:04:54.481Z,11.80
2023-05-25T16:07:20.954Z,13.47
2023-05-25T16:09:47.498Z,13.33
2023-05-25T16:12:14.018Z,14.67
2023-05-25T16:14:41.023Z,12.73
2023-05-25T16:17:07.597Z,11.20
2023-05-25T16:19:34.118Z,12.93
2023-05-25T16:22:00.595Z,18.40
2023-05-25T16:24:27.482Z,15.73
2023-05-25T16:26:54.024Z,12.17
2023-05-25T16:29:20.692Z,10.97
2023-05-25T16:31:47.238Z,14.73
2023-05-25T16:34:13.771Z,16.57
2023-05-25T16:36:40.277Z,16.13
2023-05-25T16:39:06.821Z,14.70
2023-05-25T16:41:33.603Z,15.07
2023-05-25T16:44:00.108Z,13.57
2023-05-25T16:46:26.597Z,17.37
2023-05-25T16:48:53.535Z,12.77
2023-05-25T16:51:20.369Z,13.97
2023-05-25T16:53:46.886Z,16.27
2023-05-25T16:56:13.425Z,15.17
2023-05-25T16:58:39.936Z,15.60
2023-05-25T17:01:06.488Z,16.83
2023-05-25T17:03:33.179Z,14.83
2023-05-25T17:05:59.745Z,14.30
2023-05-25T17:08:26.247Z,16.90
2023-05-25T17:10:52.748Z,16.40
2023-05-25T17:13:19.712Z,14.70
2023-05-25T17:15:46.529Z,16.00
2023-05-25T17:18:13.274Z,19.63
2023-05-25T17:20:40.096Z,19.60
2023-05-25T17:23:06.598Z,14.77
2023-05-25T17:25:34.257Z,16.50
2023-05-25T17:28:01.092Z,15.80
2023-05-25T17:30:27.612Z,20.90
2023-05-25T17:32:54.224Z,20.63
2023-05-25T17:35:20.867Z,17.70
2023-05-25T17:37:47.411Z,19.03
2023-05-25T17:40:13.945Z,18.83
2023-05-25T17:42:40.538Z,17.90
2023-05-25T17:45:07.816Z,14.07
2023-05-25T17:47:34.713Z,19.77
2023-05-25T17:50:01.255Z,14.37
2023-05-25T17:52:27.735Z,17.33
2023-05-25T17:54:54.202Z,13.47
2023-05-25T17:57:20.690Z,21.03
2023-05-25T17:59:47.183Z,17.80
2023-05-25T18:02:13.857Z,19.73
2023-05-25T18:04:40.488Z,14.47
2023-05-25T18:07:06.998Z,15.40
2023-05-25T18:09:33.531Z,13.27
2023-05-25T18:12:00.014Z,16.80
2023-05-25T18:14:26.508Z,13.77
2023-05-25T18:16:53.055Z,14.93
2023-05-25T18:19:19.576Z,15.87
2023-05-25T18:21:46.153Z,13.40
2023-05-25T18:24:12.664Z,12.23
2023-05-25T18:26:39.187Z,17.80
2023-05-25T18:29:05.706Z,19.77
2023-05-25T18:31:32.303Z,16.77
2023-05-25T18:33:59.947Z,16.17
2023-05-25T18:36:26.972Z,16.93
2023-05-25T18:38:53.460Z,14.07
2023-05-25T18:41:21.433Z,12.00
2023-05-25T18:43:48.130Z,19.70
2023-05-25T18:46:15.127Z,16.63
2023-05-25T18:48:41.931Z,18.13
2023-05-25T18:51:08.528Z,15.23
2023-05-25T18:53:35.199Z,16.17
2023-05-25T18:56:01.705Z,17.17
2023-05-25T18:58:28.506Z,20.73
2023-05-25T19:00:55.037Z,17.57
2023-05-25T19:03:21.741Z,16.97
2023-05-25T19:05:48.429Z,17.90
2023-05-25T19:08:14.930Z,18.67
2023-05-25T19:10:41.422Z,17.90
2023-05-25T19:13:07.983Z,15.00
2023-05-25T19:15:34.711Z,21.00
2023-05-25T19:18:01.267Z,17.37
2023-05-25T19:20:27.812Z,17.93
2023-05-25T19:22:54.324Z,16.37
2023-05-25T19:25:20.903Z,16.87
2023-05-25T19:27:47.420Z,18.63
2023-05-25T19:30:14.011Z,18.63
2023-05-25T19:32:40.547Z,18.97
2023-05-25T19:35:07.232Z,18.80
2023-05-25T19:37:34.796Z,21.07
2023-05-25T19:40:01.369Z,17.53
2023-05-25T19:42:28.497Z,16.00
2023-05-25T19:44:55.059Z,21.87
2023-05-25T19:47:21.668Z,16.87
2023-05-25T19:49:48.206Z,18.10
2023-05-25T19:52:16.724Z,21.50
2023-05-25T19:54:43.355Z,21.20
2023-05-25T19:57:09.982Z,18.17
2023-05-25T19:59:36.539Z,18.70
2023-05-25T20:02:04.339Z,19.63
2023-05-25T20:04:30.992Z,23.13
2023-05-25T20:06:57.709Z,20.23
2023-05-25T20:09:24.563Z,20.63
2023-05-25T20:11:51.037Z,25.13
2023-05-25T20:14:19.968Z,20.23
2023-05-25T20:16:46.764Z,18.87
2023-05-25T20:19:13.658Z,23.63
2023-05-25T20:21:40.138Z,16.90
2023-05-25T20:24:07.028Z,26.30
2023-05-25T20:26:33.854Z,18.73
2023-05-25T20:29:00.322Z,22.57
2023-05-25T20:31:26.830Z,23.13
2023-05-25T20:33:53.404Z,24.20
2023-05-25T20:36:19.897Z,23.10
2023-05-25T20:38:46.442Z,23.80
2023-05-25T20:41:13.040Z,22.50
2023-05-25T20:43:40.696Z,18.27
2023-05-25T20:46:10.973Z,21.13
2023-05-25T20:48:39.409Z,22.43
2023-05-25T20:51:06.019Z,30.73
2023-05-25T20:53:32.923Z,21.33
2023-05-25T20:56:00.908Z,18.23
2023-05-25T20:58:27.419Z,25.43
2023-05-25T21:00:53.948Z,28.63
2023-05-25T21:03:20.555Z,27.10
2023-05-25T21:05:47.265Z,20.97
2023-05-25T21:08:14.020Z,18.07
2023-05-25T21:10:40.858Z,25.43
2023-05-25T21:13:07.381Z,30.20
2023-05-25T21:15:34.217Z,21.90
2023-05-25T21:18:00.734Z,23.23
2023-05-25T21:20:27.329Z,23.37
2023-05-25T21:22:54.295Z,20.93
2023-05-25T21:25:20.926Z,19.70
2023-05-25T21:27:47.814Z,21.30
2023-05-25T21:30:14.476Z,26.73
2023-05-25T21:32:41.362Z,28.20
2023-05-25T21:35:07.977Z,24.83
2023-05-25T21:37:34.478Z,23.73
2023-05-25T21:40:01.020Z,25.13
2023-05-25T21:42:27.488Z,20.27
2023-05-25T21:44:54.001Z,20.77
2023-05-25T21:47:20.962Z,22.47
2023-05-25T21:49:48.348Z,23.43
2023-05-25T21:52:15.511Z,24.30
2023-05-25T21:54:42.286Z,20.27
2023-05-25T21:57:08.811Z,21.80
2023-05-25T21:59:35.305Z,23.40
2023-05-25T22:02:02.041Z,28.37
2023-05-25T22:04:28.941Z,17.47
2023-05-25T22:06:55.459Z,18.70
2023-05-25T22:09:22.653Z,27.63
2023-05-25T22:11:49.532Z,18.17
2023-05-25T22:14:16.012Z,22.40
2023-05-25T22:16:42.940Z,24.20
2023-05-25T22:19:09.462Z,25.07
2023-05-25T22:21:35.943Z,21.57
2023-05-25T22:24:02.799Z,21.30
2023-05-25T22:26:29.262Z,21.00
2023-05-25T22:28:56.131Z,19.50
2023-05-25T22:31:22.714Z,23.33
2023-05-25T22:33:49.698Z,24.77
2023-05-25T22:36:16.179Z,21.03
2023-05-25T22:38:43.552Z,17.93
2023-05-25T22:41:10.052Z,16.53
2023-05-25T22:43:36.962Z,19.87
2023-05-25T22:46:03.858Z,22.33
2023-05-25T22:48:31.033Z,18.97
2023-05-25T22:50:57.520Z,22.50
2023-05-25T22:53:24.021Z,23.90
2023-05-25T22:55:51.041Z,22.37
2023-05-25T22:58:17.774Z,22.40
2023-05-25T23:00:44.766Z,22.50
2023-05-25T23:03:11.316Z,21.50
2023-05-25T23:05:38.057Z,27.83
2023-05-25T23:08:04.886Z,24.00
2023-05-25T23:10:31.486Z,21.73
2023-05-25T23:12:58.300Z,17.90
2023-05-25T23:15:24.794Z,25.80
2023-05-25T23:17:51.745Z,20.30
2023-05-25T23:20:18.294Z,27.33
2023-05-25T23:22:45.344Z,27.47
2023-05-25T23:25:11.830Z,23.93
2023-05-25T23:27:38.297Z,23.20
2023-05-25T23:30:07.522Z,23.93
2023-05-25T23:32:35.606Z,31.53
2023-05-25T23:35:02.593Z,19.57
2023-05-25T23:37:29.510Z,16.73
2023-05-25T23:39:56.469Z,28.77
2023-05-25T23:42:23.381Z,21.63
2023-05-25T23:44:49.878Z,22.57
2023-05-25T23:47:16.685Z,20.67
2023-05-25T23:49:43.177Z,22.27
2023-05-25T23:52:10.164Z,21.83
2023-05-25T23:54:37.091Z,19.20
2023-05-25T23:57:03.714Z,22.17
2023-05-25T23:59:30.246Z,20.63
